Time;durP1;ratioP1;P1;durP2;ratioP2;P2;SDS_P1;SDS_P2;PMS_P1;PMS_P2;Temp;Humidity;BMP_temperature;BMP_pressure;BME280_temperature;BME280_humidity;BME280_pressure;Samples;Min_cycle;Max_cycle;Signal;HPM_P1;HPM_P2
2022/10/29 00:01:34;;;;;;;47.75;27.20;;;;;;;;;;6310604;28;20105;-72
2022/10/29 00:04:35;;;;;;;50.42;29.75;;;;;;;;;;6309975;28;20083;-71
2022/10/29 00:07:38;;;;;;;62.28;35.38;;;;;;;;;;6311404;28;20283;-72
2022/10/29 00:10:40;;;;;;;66.95;35.97;;;;;;;;;;6302846;28;20075;-72
2022/10/29 00:13:42;;;;;;;70.80;36.03;;;;;;;;;;6309097;28;20052;-71
2022/10/29 00:16:44;;;;;;;55.83;29.50;;;;;;;;;;6307975;28;20105;-71
2022/10/29 00:19:45;;;;;;;36.10;22.35;;;;;;;;;;6308113;28;20117;-70
2022/10/29 00:22:48;;;;;;;26.90;16.02;;;;;;;;;;6293958;28;20136;-67
2022/10/29 00:25:50;;;;;;;21.33;13.32;;;;;;;;;;6307949;28;20056;-67
2022/10/29 00:28:53;;;;;;;25.45;12.73;;;;;;;;;;6304415;28;20916;-67
2022/10/29 00:31:55;;;;;;;18.58;11.75;;;;;;;;;;6297962;28;20296;-67
2022/10/29 00:34:56;;;;;;;23.05;14.35;;;;;;;;;;6306205;28;20060;-67
2022/10/29 00:38:00;;;;;;;30.25;15.70;;;;;;;;;;6301297;28;20056;-67
2022/10/29 00:41:02;;;;;;;28.65;18.48;;;;;;;;;;6299168;28;20064;-67
2022/10/29 00:44:25;;;;;;;29.20;16.70;;;;;;;;;;6305201;28;20058;-66
2022/10/29 00:47:29;;;;;;;25.23;13.60;;;;;;;;;;6302175;28;20068;-67
2022/10/29 00:50:31;;;;;;;22.23;13.05;;;;;;;;;;6303445;28;20157;-69
2022/10/29 00:53:39;;;;;;;20.95;12.32;;;;;;;;;;6302489;28;20382;-67
2022/10/29 00:56:43;;;;;;;23.45;13.20;;;;;;;;;;6306356;28;20105;-67
2022/10/29 00:59:46;;;;;;;20.95;13.18;;;;;;;;;;6306055;28;20056;-68
2022/10/29 01:02:48;;;;;;;22.70;12.13;;;;;;;;;;6297369;28;20062;-68
2022/10/29 01:05:51;;;;;;;20.70;12.40;;;;;;;;;;6305137;28;20056;-67
2022/10/29 01:08:54;;;;;;;30.63;12.87;;;;;;;;;;6299904;28;20278;-68
2022/10/29 01:12:08;;;;;;;21.50;12.07;;;;;;;;;;6302099;28;20263;-68
2022/10/29 01:15:14;;;;;;;20.13;12.50;;;;;;;;;;6303786;28;20044;-68
2022/10/29 01:18:21;;;;;;;22.67;12.40;;;;;;;;;;6303246;28;20041;-68
2022/10/29 01:21:41;;;;;;;26.70;14.07;;;;;;;;;;6306668;28;20098;-68
2022/10/29 01:24:54;;;;;;;30.33;15.02;;;;;;;;;;6305303;28;20052;-68
2022/10/29 01:28:01;;;;;;;28.35;15.07;;;;;;;;;;6304212;28;20355;-68
2022/10/29 01:31:16;;;;;;;31.30;16.70;;;;;;;;;;6301178;28;20071;-68
2022/10/29 01:34:23;;;;;;;32.72;15.82;;;;;;;;;;6303572;28;20137;-68
2022/10/29 01:37:28;;;;;;;32.72;16.58;;;;;;;;;;6302095;28;20171;-67
2022/10/29 01:40:33;;;;;;;29.63;15.00;;;;;;;;;;6304518;28;20051;-67
2022/10/29 01:43:38;;;;;;;23.80;14.40;;;;;;;;;;6304438;28;20572;-68
2022/10/29 01:46:44;;;;;;;24.98;13.88;;;;;;;;;;6311552;28;20060;-69
2022/10/29 01:49:49;;;;;;;26.30;13.68;;;;;;;;;;6314260;28;20056;-72
2022/10/29 01:52:52;;;;;;;22.25;12.70;;;;;;;;;;6310705;28;20048;-70
2022/10/29 01:55:53;;;;;;;21.53;11.33;;;;;;;;;;6313403;28;20086;-70
2022/10/29 01:58:57;;;;;;;19.65;10.40;;;;;;;;;;6310789;28;20060;-70
2022/10/29 02:02:07;;;;;;;19.60;10.13;;;;;;;;;;6313991;28;20290;-69
2022/10/29 02:05:17;;;;;;;19.35;10.85;;;;;;;;;;6307579;28;20141;-68
2022/10/29 02:08:26;;;;;;;19.40;10.93;;;;;;;;;;6310108;28;20056;-69
2022/10/29 02:11:32;;;;;;;23.15;11.27;;;;;;;;;;6315509;28;20047;-69
2022/10/29 02:14:36;;;;;;;25.95;11.05;;;;;;;;;;6306799;28;20052;-69
2022/10/29 02:17:39;;;;;;;17.92;10.32;;;;;;;;;;6310167;28;20090;-71
2022/10/29 02:20:41;;;;;;;22.65;10.70;;;;;;;;;;6314066;28;20089;-70
2022/10/29 02:23:43;;;;;;;24.92;11.10;;;;;;;;;;6315367;28;20044;-70
2022/10/29 02:26:45;;;;;;;23.02;10.30;;;;;;;;;;6315702;28;20043;-69
2022/10/29 02:29:46;;;;;;;26.13;11.40;;;;;;;;;;6314363;28;20063;-69
2022/10/29 02:32:49;;;;;;;27.25;10.60;;;;;;;;;;6315048;28;20090;-68
2022/10/29 02:35:51;;;;;;;20.43;10.27;;;;;;;;;;6305028;28;20101;-69
2022/10/29 02:38:52;;;;;;;16.52;10.07;;;;;;;;;;6311828;28;20818;-73
2022/10/29 02:41:54;;;;;;;17.98;10.52;;;;;;;;;;6313355;28;20102;-71
2022/10/29 02:44:56;;;;;;;18.05;9.35;;;;;;;;;;6306948;28;20052;-73
2022/10/29 02:47:58;;;;;;;19.13;9.90;;;;;;;;;;6312444;28;20056;-69
2022/10/29 02:51:00;;;;;;;17.57;10.00;;;;;;;;;;6314617;28;20056;-70
2022/10/29 02:54:02;;;;;;;16.83;9.90;;;;;;;;;;6309726;28;20044;-69
2022/10/29 02:57:03;;;;;;;15.50;10.00;;;;;;;;;;6310526;28;20157;-70
2022/10/29 03:00:06;;;;;;;14.60;8.95;;;;;;;;;;6311554;28;20394;-71
2022/10/29 03:03:09;;;;;;;16.88;9.88;;;;;;;;;;6314825;28;20048;-69
2022/10/29 03:06:14;;;;;;;20.47;9.50;;;;;;;;;;6311083;28;20244;-68
2022/10/29 03:09:16;;;;;;;17.38;9.32;;;;;;;;;;6313167;28;20052;-71
2022/10/29 03:12:17;;;;;;;14.82;9.60;;;;;;;;;;6313555;28;20240;-69
2022/10/29 03:15:19;;;;;;;14.52;9.23;;;;;;;;;;6315900;28;20368;-70
2022/10/29 03:18:22;;;;;;;14.27;9.30;;;;;;;;;;6313215;28;20055;-67
2022/10/29 03:21:23;;;;;;;14.63;8.53;;;;;;;;;;6314035;28;20057;-67
2022/10/29 03:24:25;;;;;;;14.57;9.13;;;;;;;;;;6312710;28;20052;-70
2022/10/29 03:27:27;;;;;;;15.60;8.65;;;;;;;;;;6314568;28;20321;-71
2022/10/29 03:30:28;;;;;;;14.18;8.68;;;;;;;;;;6310187;28;20102;-70
2022/10/29 03:33:31;;;;;;;17.83;9.88;;;;;;;;;;6303012;28;20094;-68
2022/10/29 03:36:33;;;;;;;16.97;9.07;;;;;;;;;;6313787;28;20052;-66
2022/10/29 03:39:34;;;;;;;14.43;9.52;;;;;;;;;;6310988;28;20332;-72
2022/10/29 03:42:37;;;;;;;16.10;8.93;;;;;;;;;;6311605;28;20133;-68
2022/10/29 03:45:38;;;;;;;15.93;9.13;;;;;;;;;;6314500;28;20039;-70
2022/10/29 03:48:41;;;;;;;18.30;9.73;;;;;;;;;;6307353;28;20090;-70
2022/10/29 03:51:43;;;;;;;18.37;9.17;;;;;;;;;;6311278;28;20293;-69
2022/10/29 03:54:44;;;;;;;14.05;8.75;;;;;;;;;;6311790;28;20060;-68
2022/10/29 03:57:46;;;;;;;13.98;8.27;;;;;;;;;;6311561;28;20056;-69
2022/10/29 04:00:53;;;;;;;18.08;9.00;;;;;;;;;;6309561;28;20044;-70
2022/10/29 04:03:56;;;;;;;19.60;9.90;;;;;;;;;;6310428;28;20052;-72
2022/10/29 04:06:59;;;;;;;24.90;8.93;;;;;;;;;;6306775;28;20410;-70
2022/10/29 04:10:01;;;;;;;35.25;10.65;;;;;;;;;;6309781;28;20271;-70
2022/10/29 04:13:03;;;;;;;30.95;9.93;;;;;;;;;;6308823;28;20047;-65
2022/10/29 04:16:05;;;;;;;33.28;9.80;;;;;;;;;;6306069;28;20098;-68
2022/10/29 04:19:08;;;;;;;26.67;9.88;;;;;;;;;;6310882;28;20312;-67
2022/10/29 04:22:09;;;;;;;25.73;9.57;;;;;;;;;;6309394;28;20094;-66
2022/10/29 04:25:11;;;;;;;22.02;9.23;;;;;;;;;;6314305;28;20045;-68
2022/10/29 04:28:13;;;;;;;21.92;9.35;;;;;;;;;;6313288;28;20233;-69
2022/10/29 04:31:14;;;;;;;21.50;9.30;;;;;;;;;;6311827;28;20048;-69
2022/10/29 04:34:17;;;;;;;22.00;8.68;;;;;;;;;;6310610;28;20056;-69
2022/10/29 04:37:19;;;;;;;15.83;8.10;;;;;;;;;;6309818;28;20080;-69
2022/10/29 04:40:21;;;;;;;12.63;8.05;;;;;;;;;;6309259;28;20068;-69
2022/10/29 04:43:22;;;;;;;12.85;8.40;;;;;;;;;;6309152;28;20040;-66
2022/10/29 04:46:24;;;;;;;18.58;8.63;;;;;;;;;;6304422;28;20051;-68
2022/10/29 04:49:27;;;;;;;14.00;7.97;;;;;;;;;;6312046;28;20060;-68
2022/10/29 04:52:28;;;;;;;13.03;8.33;;;;;;;;;;6301905;28;20106;-68
2022/10/29 04:55:30;;;;;;;15.32;8.60;;;;;;;;;;6306427;28;20055;-68
2022/10/29 04:58:32;;;;;;;14.80;8.55;;;;;;;;;;6304541;28;20060;-68
2022/10/29 05:01:33;;;;;;;12.20;8.07;;;;;;;;;;6306393;28;20093;-68
2022/10/29 05:04:36;;;;;;;13.77;7.88;;;;;;;;;;6309162;28;20052;-68
2022/10/29 05:07:38;;;;;;;22.93;9.50;;;;;;;;;;6310490;28;20320;-68
2022/10/29 05:10:40;;;;;;;26.50;10.05;;;;;;;;;;6305844;28;20364;-68
2022/10/29 05:13:42;;;;;;;40.25;10.63;;;;;;;;;;6307275;28;20056;-68
2022/10/29 05:16:44;;;;;;;60.05;12.20;;;;;;;;;;6307793;28;20052;-68
2022/10/29 05:19:47;;;;;;;32.17;11.27;;;;;;;;;;6307742;28;20071;-68
2022/10/29 05:22:48;;;;;;;26.70;9.55;;;;;;;;;;6306444;28;20130;-68
2022/10/29 05:25:51;;;;;;;18.35;8.73;;;;;;;;;;6306986;28;20052;-68
2022/10/29 05:28:52;;;;;;;15.25;9.13;;;;;;;;;;6306476;28;20052;-68
2022/10/29 05:31:54;;;;;;;17.95;9.07;;;;;;;;;;6300376;28;20052;-68
2022/10/29 05:34:57;;;;;;;17.15;8.95;;;;;;;;;;6301788;28;20044;-68
2022/10/29 05:37:59;;;;;;;19.53;9.23;;;;;;;;;;6300964;28;20056;-68
2022/10/29 05:41:00;;;;;;;16.33;9.10;;;;;;;;;;6302458;28;20064;-68
2022/10/29 05:44:02;;;;;;;20.27;9.65;;;;;;;;;;6302470;28;20059;-68
2022/10/29 05:47:06;;;;;;;19.60;8.90;;;;;;;;;;6300489;28;20398;-68
2022/10/29 05:50:10;;;;;;;13.52;8.55;;;;;;;;;;6302792;28;20101;-68
2022/10/29 05:53:11;;;;;;;;;;;;;;;;;;6304614;28;20213;-68
2022/10/29 05:56:13;;;;;;;17.20;8.75;;;;;;;;;;6303820;28;20192;-67
2022/10/29 05:59:14;;;;;;;18.48;9.20;;;;;;;;;;6299283;28;20052;-67
2022/10/29 06:02:16;;;;;;;16.65;9.30;;;;;;;;;;6298519;28;20094;-67
2022/10/29 06:05:19;;;;;;;19.75;9.40;;;;;;;;;;6297697;28;20225;-67
2022/10/29 06:08:21;;;;;;;14.35;9.45;;;;;;;;;;6302697;28;20281;-68
2022/10/29 06:11:22;;;;;;;17.92;8.77;;;;;;;;;;6302624;28;20102;-66
2022/10/29 06:14:24;;;;;;;15.15;8.98;;;;;;;;;;6300054;28;20083;-65
2022/10/29 06:17:26;;;;;;;16.17;9.32;;;;;;;;;;6303431;28;20082;-65
2022/10/29 06:20:29;;;;;;;15.25;8.93;;;;;;;;;;6295380;28;20056;-65
2022/10/29 06:23:30;;;;;;;16.17;8.73;;;;;;;;;;6297564;28;20040;-65
2022/10/29 06:26:32;;;;;;;13.35;9.20;;;;;;;;;;6303114;28;20060;-65
2022/10/29 06:29:34;;;;;;;15.43;8.60;;;;;;;;;;6301868;28;20052;-66
2022/10/29 06:32:35;;;;;;;16.63;8.25;;;;;;;;;;6306419;28;20048;-67
2022/10/29 06:35:38;;;;;;;19.77;8.95;;;;;;;;;;6304951;28;20283;-67
2022/10/29 06:38:40;;;;;;;22.37;8.80;;;;;;;;;;6309650;28;20060;-67
2022/10/29 06:41:41;;;;;;;20.23;8.20;;;;;;;;;;6306662;28;20316;-66
2022/10/29 06:44:43;;;;;;;20.42;9.25;;;;;;;;;;6306291;28;20115;-66
2022/10/29 06:47:45;;;;;;;15.23;8.40;;;;;;;;;;6319904;28;20071;-65
2022/10/29 06:50:48;;;;;;;17.15;9.18;;;;;;;;;;6315914;28;20381;-64
2022/10/29 06:53:50;;;;;;;17.00;8.70;;;;;;;;;;6322573;28;20048;-65
2022/10/29 06:56:51;;;;;;;16.88;9.25;;;;;;;;;;6309035;28;20056;-65
2022/10/29 06:59:53;;;;;;;16.77;8.57;;;;;;;;;;6310077;28;20052;-65
2022/10/29 07:02:55;;;;;;;17.05;9.38;;;;;;;;;;6315985;28;20109;-65
2022/10/29 07:05:59;;;;;;;18.55;9.05;;;;;;;;;;6314452;28;20056;-65
2022/10/29 07:09:00;;;;;;;18.67;9.35;;;;;;;;;;6306045;28;20053;-65
2022/10/29 07:12:02;;;;;;;15.10;8.68;;;;;;;;;;6307263;28;20082;-66
2022/10/29 07:15:04;;;;;;;15.88;8.32;;;;;;;;;;6303093;28;20052;-65
2022/10/29 07:18:07;;;;;;;16.05;9.05;;;;;;;;;;6306719;28;20059;-66
2022/10/29 07:21:10;;;;;;;15.77;8.63;;;;;;;;;;6303951;28;20219;-67
2022/10/29 07:24:12;;;;;;;17.33;9.05;;;;;;;;;;6309740;28;20080;-66
2022/10/29 07:27:13;;;;;;;18.83;9.23;;;;;;;;;;6310232;28;20077;-66
2022/10/29 07:30:15;;;;;;;14.82;8.90;;;;;;;;;;6305772;28;20056;-66
2022/10/29 07:33:17;;;;;;;16.38;9.48;;;;;;;;;;6299527;28;20052;-66
2022/10/29 07:36:20;;;;;;;14.98;9.10;;;;;;;;;;6301805;28;20044;-67
2022/10/29 07:39:22;;;;;;;17.02;8.57;;;;;;;;;;6308600;28;20233;-66
2022/10/29 07:42:24;;;;;;;17.20;9.27;;;;;;;;;;6305188;28;20337;-67
2022/10/29 07:45:25;;;;;;;14.45;9.00;;;;;;;;;;6310336;28;20073;-67
2022/10/29 07:48:27;;;;;;;15.60;8.85;;;;;;;;;;6304854;28;20053;-67
2022/10/29 07:51:30;;;;;;;16.08;9.50;;;;;;;;;;6302507;28;20106;-67
2022/10/29 07:54:32;;;;;;;15.57;10.27;;;;;;;;;;6310595;28;20049;-66
2022/10/29 07:57:33;;;;;;;15.27;9.30;;;;;;;;;;6303846;28;20040;-66
2022/10/29 08:00:36;;;;;;;18.52;10.15;;;;;;;;;;6308445;28;20056;-66
2022/10/29 08:03:38;;;;;;;21.50;10.73;;;;;;;;;;6300351;28;20052;-64
2022/10/29 08:06:41;;;;;;;15.18;8.93;;;;;;;;;;6304250;28;20455;-65
2022/10/29 08:09:42;;;;;;;19.27;10.30;;;;;;;;;;6303858;28;20044;-66
2022/10/29 08:12:49;;;;;;;15.65;10.18;;;;;;;;;;6306686;28;20121;-66
2022/10/29 08:15:51;;;;;;;18.67;10.45;;;;;;;;;;6303356;28;20127;-65
2022/10/29 08:18:52;;;;;;;16.02;9.80;;;;;;;;;;6303544;28;20071;-66
2022/10/29 08:21:55;;;;;;;16.92;10.00;;;;;;;;;;6303566;28;20143;-66
2022/10/29 08:24:57;;;;;;;19.90;11.15;;;;;;;;;;6301660;28;20094;-66
2022/10/29 08:28:00;;;;;;;15.70;9.95;;;;;;;;;;6301472;28;20048;-66
2022/10/29 08:31:01;;;;;;;17.38;9.88;;;;;;;;;;6303222;28;20101;-65
2022/10/29 08:34:03;;;;;;;17.00;10.25;;;;;;;;;;6304297;28;20117;-66
2022/10/29 08:37:06;;;;;;;13.73;10.10;;;;;;;;;;6303714;28;20090;-66
2022/10/29 08:40:13;;;;;;;16.17;9.60;;;;;;;;;;6303862;28;20366;-65
2022/10/29 08:43:55;;;;;;;16.58;10.68;;;;;;;;;;6298998;28;20071;-65
2022/10/29 08:47:04;;;;;;;15.63;9.18;;;;;;;;;;6303274;28;20059;-65
2022/10/29 08:50:15;;;;;;;17.58;10.20;;;;;;;;;;6307485;28;20044;-65
2022/10/29 08:53:21;;;;;;;16.85;9.57;;;;;;;;;;6301866;28;20082;-65
2022/10/29 08:56:28;;;;;;;14.75;9.77;;;;;;;;;;6303798;28;20067;-65
2022/10/29 08:59:32;;;;;;;14.18;8.93;;;;;;;;;;6303123;28;20060;-66
2022/10/29 09:02:34;;;;;;;18.25;9.30;;;;;;;;;;6300725;28;20275;-66
2022/10/29 09:05:42;;;;;;;25.77;10.88;;;;;;;;;;6301151;28;20059;-65
2022/10/29 09:09:21;;;;;;;17.42;9.63;;;;;;;;;;6306679;28;20119;-66
2022/10/29 09:12:39;;;;;;;17.42;9.30;;;;;;;;;;6304597;28;20409;-66
2022/10/29 09:15:59;;;;;;;13.88;8.15;;;;;;;;;;6304742;28;20059;-66
2022/10/29 09:19:22;;;;;;;13.45;7.45;;;;;;;;;;6301526;28;20676;-66
2022/10/29 09:22:28;;;;;;;13.07;7.47;;;;;;;;;;6301530;28;20245;-66
2022/10/29 09:25:37;;;;;;;13.52;7.53;;;;;;;;;;6304797;28;20137;-66
2022/10/29 09:28:46;;;;;;;9.60;6.70;;;;;;;;;;6303649;28;20056;-66
2022/10/29 09:31:50;;;;;;;10.00;6.57;;;;;;;;;;6306282;28;20106;-66
2022/10/29 09:34:54;;;;;;;11.15;6.65;;;;;;;;;;6303740;28;20048;-66
2022/10/29 09:37:58;;;;;;;12.57;6.18;;;;;;;;;;6301355;28;20060;-66
2022/10/29 09:41:02;;;;;;;9.10;6.50;;;;;;;;;;6299734;28;20198;-66
2022/10/29 09:44:11;;;;;;;10.95;6.55;;;;;;;;;;6298782;28;20180;-66
2022/10/29 09:47:20;;;;;;;9.27;5.85;;;;;;;;;;6302621;28;20066;-66
2022/10/29 09:50:26;;;;;;;9.70;6.15;;;;;;;;;;6302575;28;20067;-66
2022/10/29 09:53:28;;;;;;;12.02;6.55;;;;;;;;;;6304381;28;20049;-66
2022/10/29 09:56:31;;;;;;;9.90;5.97;;;;;;;;;;6304589;28;20048;-66
2022/10/29 09:59:35;;;;;;;8.25;6.05;;;;;;;;;;6304388;28;20052;-66
2022/10/29 10:02:38;;;;;;;9.25;6.07;;;;;;;;;;6295700;28;20365;-66
2022/10/29 10:06:01;;;;;;;9.98;6.20;;;;;;;;;;6305404;28;20048;-66
2022/10/29 10:09:04;;;;;;;9.73;5.60;;;;;;;;;;6300839;28;20056;-66
2022/10/29 10:12:08;;;;;;;12.07;6.03;;;;;;;;;;6302815;28;20048;-66
2022/10/29 10:15:19;;;;;;;7.22;5.28;;;;;;;;;;6298884;28;20055;-66
2022/10/29 10:18:23;;;;;;;8.30;5.57;;;;;;;;;;6302092;28;20106;-66
2022/10/29 10:21:26;;;;;;;9.68;5.32;;;;;;;;;;6307483;28;20056;-68
2022/10/29 10:24:30;;;;;;;8.48;5.68;;;;;;;;;;6305416;28;20240;-68
2022/10/29 10:27:33;;;;;;;8.43;5.93;;;;;;;;;;6308483;28;20048;-68
2022/10/29 10:30:35;;;;;;;9.95;5.50;;;;;;;;;;6307513;28;20075;-68
2022/10/29 10:33:44;;;;;;;9.07;5.78;;;;;;;;;;6305350;28;20286;-67
2022/10/29 10:36:50;;;;;;;8.88;5.63;;;;;;;;;;6305579;28;20060;-66
2022/10/29 10:39:54;;;;;;;9.27;6.38;;;;;;;;;;6303024;28;20056;-67
2022/10/29 10:42:57;;;;;;;9.32;4.90;;;;;;;;;;6307238;28;20206;-67
2022/10/29 10:46:01;;;;;;;8.02;5.10;;;;;;;;;;6311406;28;20109;-67
2022/10/29 10:49:04;;;;;;;10.30;5.80;;;;;;;;;;6309766;28;20048;-68
2022/10/29 10:52:15;;;;;;;6.72;5.28;;;;;;;;;;6305596;28;20052;-68
2022/10/29 10:55:22;;;;;;;9.77;5.53;;;;;;;;;;6309143;28;20048;-67
2022/10/29 10:58:29;;;;;;;9.02;4.95;;;;;;;;;;6307943;28;20095;-67
2022/10/29 11:01:36;;;;;;;8.27;4.78;;;;;;;;;;6304668;28;20114;-67
2022/10/29 11:04:39;;;;;;;7.63;4.65;;;;;;;;;;6306964;28;20102;-67
2022/10/29 11:07:45;;;;;;;6.97;4.30;;;;;;;;;;6306364;28;20711;-67
2022/10/29 11:10:52;;;;;;;7.75;4.47;;;;;;;;;;6308577;28;20060;-67
2022/10/29 11:13:55;;;;;;;10.07;4.72;;;;;;;;;;6303751;28;20056;-67
2022/10/29 11:16:57;;;;;;;8.13;4.50;;;;;;;;;;6307081;28;20057;-67
2022/10/29 11:20:01;;;;;;;6.78;4.07;;;;;;;;;;6305339;28;20056;-67
2022/10/29 11:23:19;;;;;;;8.07;4.85;;;;;;;;;;6305719;28;20048;-68
2022/10/29 11:26:28;;;;;;;7.40;4.57;;;;;;;;;;6302978;28;20114;-67
2022/10/29 11:29:37;;;;;;;5.28;4.13;;;;;;;;;;6308399;28;20041;-67
2022/10/29 11:32:46;;;;;;;7.15;4.75;;;;;;;;;;6304702;28;20052;-67
2022/10/29 11:35:51;;;;;;;7.07;4.13;;;;;;;;;;6302991;28;20048;-67
2022/10/29 11:38:57;;;;;;;9.50;4.90;;;;;;;;;;6304676;28;20125;-67
2022/10/29 11:42:00;;;;;;;9.20;4.78;;;;;;;;;;6302328;28;20056;-67
2022/10/29 11:45:04;;;;;;;7.93;4.93;;;;;;;;;;6303363;28;20072;-68
2022/10/29 11:48:14;;;;;;;7.45;4.38;;;;;;;;;;6307679;28;20048;-66
2022/10/29 11:51:23;;;;;;;6.90;4.38;;;;;;;;;;6312335;28;20036;-70
2022/10/29 11:54:43;;;;;;;7.82;4.43;;;;;;;;;;6311965;28;20053;-67
2022/10/29 11:57:51;;;;;;;7.65;4.43;;;;;;;;;;6316012;28;20040;-72
2022/10/29 12:00:58;;;;;;;7.55;4.75;;;;;;;;;;6306441;28;20114;-65
2022/10/29 12:04:15;;;;;;;8.43;4.20;;;;;;;;;;6308210;28;20102;-69
2022/10/29 12:07:31;;;;;;;6.32;3.80;;;;;;;;;;6314170;28;20052;-66
2022/10/29 12:10:43;;;;;;;4.72;3.22;;;;;;;;;;6307371;28;20060;-70
2022/10/29 12:13:53;;;;;;;6.75;3.20;;;;;;;;;;6311941;28;20367;-65
2022/10/29 12:17:01;;;;;;;7.63;3.67;;;;;;;;;;6308242;28;20048;-64
2022/10/29 12:20:10;;;;;;;5.32;3.50;;;;;;;;;;6310159;28;20063;-66
2022/10/29 12:23:24;;;;;;;7.72;3.80;;;;;;;;;;6312281;28;20047;-64
2022/10/29 12:26:29;;;;;;;6.82;3.47;;;;;;;;;;6310838;28;20052;-67
2022/10/29 12:29:38;;;;;;;5.47;3.40;;;;;;;;;;6312699;28;20109;-66
2022/10/29 12:32:49;;;;;;;6.60;3.20;;;;;;;;;;6310503;28;20047;-68
2022/10/29 12:35:57;;;;;;;6.43;3.50;;;;;;;;;;6308838;28;20332;-64
2022/10/29 12:39:00;;;;;;;9.93;3.53;;;;;;;;;;6310713;28;20559;-64
2022/10/29 12:42:01;;;;;;;;;;;;;;;;;;6308118;28;20109;-64
2022/10/29 12:45:14;;;;;;;5.90;2.97;;;;;;;;;;6308396;28;20093;-64
2022/10/29 12:48:21;;;;;;;7.72;3.50;;;;;;;;;;6312568;28;20074;-64
2022/10/29 12:51:27;;;;;;;8.45;3.13;;;;;;;;;;6309218;28;20048;-64
2022/10/29 12:54:34;;;;;;;4.43;3.22;;;;;;;;;;6302955;28;20043;-64
2022/10/29 12:57:36;;;;;;;4.97;2.72;;;;;;;;;;6316827;28;20056;-65
2022/10/29 13:00:47;;;;;;;8.90;2.95;;;;;;;;;;6311745;28;20051;-65
2022/10/29 13:04:05;;;;;;;5.50;3.20;;;;;;;;;;6307449;28;20059;-65
2022/10/29 13:07:22;;;;;;;5.65;2.70;;;;;;;;;;6308871;28;20289;-64
2022/10/29 13:10:49;;;;;;;6.93;3.10;;;;;;;;;;6303223;28;20327;-65
2022/10/29 13:13:54;;;;;;;7.45;3.10;;;;;;;;;;6310003;28;20232;-65
2022/10/29 13:16:56;;;;;;;5.80;2.63;;;;;;;;;;6305001;28;20056;-65
2022/10/29 13:20:00;;;;;;;;;;;;;;;;;;6308146;28;20052;-64
2022/10/29 13:23:02;;;;;;;7.22;2.83;;;;;;;;;;6308776;28;20147;-65
2022/10/29 13:26:04;;;;;;;6.78;3.03;;;;;;;;;;6308721;28;20052;-65
2022/10/29 13:29:07;;;;;;;5.38;2.30;;;;;;;;;;6304989;28;20719;-64
2022/10/29 13:32:09;;;;;;;6.18;2.13;;;;;;;;;;6304213;28;20048;-64
2022/10/29 13:35:42;;;;;;;5.60;2.70;;;;;;;;;;6297735;28;20533;-64
2022/10/29 13:38:45;;;;;;;3.92;2.20;;;;;;;;;;6295319;28;20382;-64
2022/10/29 13:41:50;;;;;;;7.55;2.70;;;;;;;;;;6303047;28;20356;-64
2022/10/29 13:44:53;;;;;;;6.20;2.60;;;;;;;;;;6307352;28;20055;-64
2022/10/29 13:47:57;;;;;;;4.88;2.58;;;;;;;;;;6309808;28;20089;-64
2022/10/29 13:51:03;;;;;;;4.97;2.67;;;;;;;;;;6305590;28;20252;-65
2022/10/29 13:54:10;;;;;;;6.80;3.05;;;;;;;;;;6303550;28;20112;-64
2022/10/29 13:57:19;;;;;;;5.47;3.42;;;;;;;;;;6312529;28;20094;-64
2022/10/29 14:00:21;;;;;;;5.00;3.03;;;;;;;;;;6310550;28;20040;-65
2022/10/29 14:03:25;;;;;;;;;;;;;;;;;;6320364;28;20112;-66
2022/10/29 14:06:31;;;;;;;5.95;3.00;;;;;;;;;;6312303;28;20102;-65
2022/10/29 14:09:37;;;;;;;7.05;3.28;;;;;;;;;;6314698;28;21419;-64
2022/10/29 14:12:39;;;;;;;6.72;3.42;;;;;;;;;;6309469;28;20045;-64
2022/10/29 14:16:00;;;;;;;4.82;2.92;;;;;;;;;;6307351;28;20044;-64
2022/10/29 14:19:13;;;;;;;6.78;2.80;;;;;;;;;;6312646;28;20049;-64
2022/10/29 14:22:28;;;;;;;5.90;3.17;;;;;;;;;;6313654;28;20101;-63
2022/10/29 14:25:34;;;;;;;7.15;3.28;;;;;;;;;;6316633;28;20048;-64
2022/10/29 14:28:36;;;;;;;6.72;3.80;;;;;;;;;;6315907;28;20056;-64
2022/10/29 14:31:37;;;;;;;5.95;3.00;;;;;;;;;;6316461;28;20072;-64
2022/10/29 14:34:39;;;;;;;6.82;3.17;;;;;;;;;;6319840;28;20059;-64
2022/10/29 14:37:43;;;;;;;4.27;3.10;;;;;;;;;;6317469;28;20219;-63
2022/10/29 14:40:45;;;;;;;5.60;3.38;;;;;;;;;;6309249;28;20102;-63
2022/10/29 14:43:52;;;;;;;7.25;3.55;;;;;;;;;;6318551;28;20094;-64
2022/10/29 14:46:59;;;;;;;8.93;3.72;;;;;;;;;;6309663;28;20234;-63
2022/10/29 14:50:03;;;;;;;8.60;3.70;;;;;;;;;;6312479;28;20061;-64
2022/10/29 14:53:17;;;;;;;8.32;3.88;;;;;;;;;;6319459;28;20114;-63
2022/10/29 14:56:19;;;;;;;5.70;3.90;;;;;;;;;;6307192;28;20084;-63
2022/10/29 14:59:23;;;;;;;8.73;4.07;;;;;;;;;;6313128;28;20111;-64
2022/10/29 15:02:25;;;;;;;8.52;3.47;;;;;;;;;;6314488;28;20052;-63
2022/10/29 15:05:28;;;;;;;6.27;4.23;;;;;;;;;;6314700;28;20147;-63
2022/10/29 15:08:38;;;;;;;6.40;3.92;;;;;;;;;;6312957;28;20056;-63
2022/10/29 15:11:42;;;;;;;6.30;3.30;;;;;;;;;;6306084;28;20221;-63
2022/10/29 15:14:47;;;;;;;9.90;4.10;;;;;;;;;;6306652;28;20052;-64
2022/10/29 15:17:51;;;;;;;7.93;3.70;;;;;;;;;;6307095;28;20052;-63
2022/10/29 15:20:54;;;;;;;10.85;4.03;;;;;;;;;;6306653;28;20064;-63
2022/10/29 15:23:58;;;;;;;;;;;;;;;;;;6307386;28;20054;-63
2022/10/29 15:27:01;;;;;;;6.70;3.58;;;;;;;;;;6307532;28;19986;-63
2022/10/29 15:30:04;;;;;;;9.13;3.83;;;;;;;;;;6308630;28;20052;-63
2022/10/29 15:33:07;;;;;;;5.28;3.13;;;;;;;;;;6305924;28;20047;-63
2022/10/29 15:36:09;;;;;;;6.47;3.60;;;;;;;;;;6312394;28;20056;-63
2022/10/29 15:39:25;;;;;;;6.97;3.90;;;;;;;;;;6305628;28;20138;-63
2022/10/29 15:42:28;;;;;;;8.57;3.85;;;;;;;;;;6308385;28;20078;-63
2022/10/29 15:45:30;;;;;;;6.90;4.05;;;;;;;;;;6307444;28;20236;-63
2022/10/29 15:48:36;;;;;;;9.73;4.15;;;;;;;;;;6306377;28;20192;-63
2022/10/29 15:51:38;;;;;;;7.97;3.55;;;;;;;;;;6305512;28;20055;-62
2022/10/29 15:54:41;;;;;;;46.53;33.28;;;;;;;;;;6309809;28;20056;-64
2022/10/29 15:57:44;;;;;;;90.10;57.83;;;;;;;;;;6306457;28;20106;-64
2022/10/29 16:00:46;;;;;;;74.95;47.80;;;;;;;;;;6299372;28;20064;-67
2022/10/29 16:03:47;;;;;;;24.48;15.95;;;;;;;;;;6304925;28;20117;-69
2022/10/29 16:06:49;;;;;;;13.13;6.40;;;;;;;;;;6302745;28;20386;-67
2022/10/29 16:09:53;;;;;;;9.77;4.43;;;;;;;;;;6306366;28;20048;-69
2022/10/29 16:12:55;;;;;;;8.65;4.15;;;;;;;;;;6302451;28;20056;-70
2022/10/29 16:15:57;;;;;;;8.88;5.05;;;;;;;;;;6304082;28;20117;-67
2022/10/29 16:18:58;;;;;;;11.23;5.45;;;;;;;;;;6307646;28;20067;-66
2022/10/29 16:22:00;;;;;;;11.05;4.25;;;;;;;;;;6304765;28;20086;-66
2022/10/29 16:25:03;;;;;;;11.18;4.72;;;;;;;;;;6304249;28;20057;-66
2022/10/29 16:28:05;;;;;;;12.05;4.82;;;;;;;;;;6309151;28;20127;-66
2022/10/29 16:31:17;;;;;;;12.02;5.03;;;;;;;;;;6305280;28;20060;-69
2022/10/29 16:34:19;;;;;;;11.63;5.20;;;;;;;;;;6300723;28;20100;-69
2022/10/29 16:37:21;;;;;;;9.75;5.10;;;;;;;;;;6299632;28;20102;-67
2022/10/29 16:40:26;;;;;;;10.70;5.32;;;;;;;;;;6299674;28;20074;-67
2022/10/29 16:43:28;;;;;;;13.30;5.90;;;;;;;;;;6302557;28;20040;-64
2022/10/29 16:46:29;;;;;;;10.73;6.18;;;;;;;;;;6303645;28;20056;-66
2022/10/29 16:49:31;;;;;;;13.40;6.13;;;;;;;;;;6308892;28;20044;-65
2022/10/29 16:52:32;;;;;;;10.48;6.70;;;;;;;;;;6301831;28;20122;-66
2022/10/29 16:55:37;;;;;;;13.40;6.50;;;;;;;;;;6302099;28;20068;-65
2022/10/29 16:58:39;;;;;;;14.85;6.63;;;;;;;;;;6301377;28;20044;-65
2022/10/29 17:01:41;;;;;;;10.40;6.20;;;;;;;;;;6304410;28;20064;-65
2022/10/29 17:04:43;;;;;;;14.17;6.73;;;;;;;;;;6306007;28;20345;-65
2022/10/29 17:07:44;;;;;;;11.25;6.57;;;;;;;;;;6303381;28;20550;-64
2022/10/29 17:10:47;;;;;;;9.98;6.45;;;;;;;;;;6306209;28;20048;-65
2022/10/29 17:13:49;;;;;;;13.73;6.47;;;;;;;;;;6307014;28;20098;-65
2022/10/29 17:16:50;;;;;;;13.55;6.88;;;;;;;;;;6306046;28;20111;-65
2022/10/29 17:19:52;;;;;;;16.58;7.97;;;;;;;;;;6306072;28;20056;-65
2022/10/29 17:22:54;;;;;;;13.07;8.00;;;;;;;;;;6304076;28;20123;-65
2022/10/29 17:25:58;;;;;;;17.10;8.50;;;;;;;;;;6306796;28;20248;-65
2022/10/29 17:29:00;;;;;;;18.95;9.00;;;;;;;;;;6304485;28;20040;-66
2022/10/29 17:32:01;;;;;;;16.30;7.78;;;;;;;;;;6302376;28;20056;-66
2022/10/29 17:35:03;;;;;;;19.83;9.40;;;;;;;;;;6301448;28;20047;-65
2022/10/29 17:38:05;;;;;;;21.08;9.90;;;;;;;;;;6301671;28;20094;-64
2022/10/29 17:41:08;;;;;;;18.55;9.43;;;;;;;;;;6305775;28;20048;-64
2022/10/29 17:44:09;;;;;;;17.23;9.23;;;;;;;;;;6305969;28;20180;-66
2022/10/29 17:47:11;;;;;;;19.45;8.70;;;;;;;;;;6304925;28;20124;-65
2022/10/29 17:50:12;;;;;;;17.40;10.02;;;;;;;;;;6255816;28;20053;-65
2022/10/29 17:53:14;;;;;;;23.60;14.60;;;;;;;;;;6255079;28;20127;-65
2022/10/29 17:56:17;;;;;;;30.23;17.80;;;;;;;;;;6251333;28;20049;-65
2022/10/29 17:59:18;;;;;;;44.13;24.92;;;;;;;;;;6254516;28;20261;-64
2022/10/29 18:02:20;;;;;;;45.28;25.58;;;;;;;;;;6255908;28;20072;-66
2022/10/29 18:05:22;;;;;;;34.83;20.88;;;;;;;;;;6255060;28;20056;-65
2022/10/29 18:08:23;;;;;;;28.48;17.33;;;;;;;;;;6253676;28;20065;-65
2022/10/29 18:11:27;;;;;;;27.02;13.55;;;;;;;;;;6257237;28;20053;-66
2022/10/29 18:14:28;;;;;;;22.77;11.48;;;;;;;;;;6253804;28;20085;-65